Time;durP1;ratioP1;P1;durP2;ratioP2;P2;SDS_P1;SDS_P2;PMS_P1;PMS_P2;Temp;Humidity;BMP_temperature;BMP_pressure;BME280_temperature;BME280_humidity;BME280_pressure;Samples;Min_cycle;Max_cycle;Signal;HPM_P1;HPM_P2
2023/04/27 00:00:00;;;;;;;;;;;;;;;3.60;65.96;99001.05;135653;1264;22505;-66
2023/04/27 00:03:06;;;;;;;;;;;;;;;3.69;66.12;99002.52;133183;1278;3216820;-65
2023/04/27 00:06:10;;;;;;;;;;;;;;;3.77;65.71;99000.69;135688;1278;22497;-65
2023/04/27 00:09:13;;;;;;;;;;;;;;;3.73;65.84;98996.69;135640;1278;22494;-65
2023/04/27 00:12:16;;;;;;;;;;;;;;;3.69;65.90;98997.48;135646;1278;24239;-65
2023/04/27 00:15:19;;;;;;;;;;;;;;;3.58;66.63;98998.32;135684;1278;22500;-67
2023/04/27 00:18:22;;;;;;;;;;;;;;;3.68;66.29;98999.77;135612;1279;24359;-64
2023/04/27 00:21:26;;;;;;;;;;;;;;;3.64;66.42;99000.23;135436;1264;22516;-64
2023/04/27 00:24:28;;;;;;;;;;;;;;;3.59;66.19;99002.95;135583;1280;22520;-65
2023/04/27 00:27:31;;;;;;;;;;;;;;;3.55;66.34;98998.42;135473;1279;22495;-65
2023/04/27 00:30:36;;;;;;;;;;;;;;;3.50;66.32;98999.60;135618;1279;22535;-67
2023/04/27 00:33:39;;;;;;;;;;;;;;;3.41;65.98;98999.35;135596;1261;22523;-66
2023/04/27 00:36:42;;;;;;;;;;;;;;;3.31;66.51;99002.73;135606;1267;22512;-65
2023/04/27 00:39:46;;;;;;;;;;;;;;;3.24;66.38;99007.42;135579;1279;22512;-65
2023/04/27 00:42:49;;;;;;;;;;;;;;;3.15;66.47;99005.97;135347;1281;22503;-66
2023/04/27 00:46:03;;;;;;;;;;;;;;;3.07;66.93;99007.38;135386;1281;22495;-64
2023/04/27 00:49:06;;;;;;;;;;;;;;;3.05;66.95;99006.91;135370;1281;22507;-64
2023/04/27 00:52:08;;;;;;;;;;;;;;;3.07;67.00;99008.09;135390;1281;22522;-66
2023/04/27 00:55:11;;;;;;;;;;;;;;;2.97;67.21;99007.13;135362;1281;22519;-64
2023/04/27 00:58:14;;;;;;;;;;;;;;;2.81;68.10;99008.59;135361;1264;22505;-65
2023/04/27 01:01:19;;;;;;;;;;;;;;;2.67;68.78;99008.95;135413;1281;22487;-65
2023/04/27 01:04:22;;;;;;;;;;;;;;;2.65;68.65;99010.05;135304;1281;22501;-65
2023/04/27 01:07:27;;;;;;;;;;;;;;;2.70;68.70;99013.38;135379;1281;22510;-64
2023/04/27 01:10:29;;;;;;;;;;;;;;;2.75;68.74;99016.01;135384;1281;22585;-64
2023/04/27 01:13:32;;;;;;;;;;;;;;;2.79;68.58;99017.45;135328;1281;25215;-65
2023/04/27 01:16:36;;;;;;;;;;;;;;;2.80;68.64;99015.02;135381;1281;22501;-64
2023/04/27 01:19:39;;;;;;;;;;;;;;;2.82;68.58;99016.02;135375;1281;22616;-64
2023/04/27 01:22:42;;;;;;;;;;;;;;;2.73;69.16;99019.16;135389;1281;22513;-64
2023/04/27 01:25:45;;;;;;;;;;;;;;;2.73;69.41;99019.69;135413;1281;22511;-64
2023/04/27 01:28:47;;;;;;;;;;;;;;;2.87;69.33;99025.52;135356;1279;22547;-65
2023/04/27 01:31:50;;;;;;;;;;;;;;;2.91;69.03;99028.02;135370;1281;22529;-66
2023/04/27 01:34:53;;;;;;;;;;;;;;;2.79;69.46;99022.64;135402;1281;22515;-65
2023/04/27 01:37:56;;;;;;;;;;;;;;;2.69;70.00;99024.95;135371;1281;25361;-64
2023/04/27 01:41:00;;;;;;;;;;;;;;;2.63;70.17;99028.21;135378;1281;22514;-65
2023/04/27 01:44:03;;;;;;;;;;;;;;;2.61;70.65;99032.08;135376;1281;22514;-64
2023/04/27 01:47:06;;;;;;;;;;;;;;;2.54;70.62;99028.97;135363;1281;22593;-64
2023/04/27 01:50:09;;;;;;;;;;;;;;;2.54;70.42;99025.00;135352;1281;22602;-64
2023/04/27 01:53:13;;;;;;;;;;;;;;;2.51;70.50;99025.91;135367;1281;22524;-63
2023/04/27 01:56:15;;;;;;;;;;;;;;;2.53;70.60;99029.86;135377;1281;22516;-64
2023/04/27 01:59:19;;;;;;;;;;;;;;;2.60;70.42;99034.52;135394;1281;22543;-66
2023/04/27 02:02:22;;;;;;;;;;;;;;;2.50;71.18;99031.14;135402;1281;22505;-64
2023/04/27 02:05:25;;;;;;;;;;;;;;;2.60;70.74;99033.13;135285;1281;25373;-64
2023/04/27 02:08:28;;;;;;;;;;;;;;;2.59;70.55;99034.88;135354;1281;22523;-65
2023/04/27 02:11:31;;;;;;;;;;;;;;;2.60;70.76;99036.42;135366;1281;22567;-64
2023/04/27 02:14:34;;;;;;;;;;;;;;;2.63;70.98;99040.48;135324;1281;22549;-64
2023/04/27 02:17:37;;;;;;;;;;;;;;;2.74;70.97;99034.51;135371;1281;22519;-64
2023/04/27 02:20:41;;;;;;;;;;;;;;;2.70;71.05;99032.88;135320;1281;22533;-64
2023/04/27 02:23:44;;;;;;;;;;;;;;;2.70;71.67;99032.54;135343;1281;22543;-63
2023/04/27 02:26:47;;;;;;;;;;;;;;;2.86;71.47;99033.00;135369;1267;22509;-64
2023/04/27 02:29:50;;;;;;;;;;;;;;;2.96;71.07;99029.63;135370;1281;22506;-65
2023/04/27 02:32:53;;;;;;;;;;;;;;;2.84;70.43;99031.66;135379;1281;22514;-65
2023/04/27 02:35:56;;;;;;;;;;;;;;;2.70;70.66;99035.32;135371;1281;22621;-64
2023/04/27 02:39:01;;;;;;;;;;;;;;;2.64;70.90;99034.42;135378;1281;22521;-64
2023/04/27 02:42:05;;;;;;;;;;;;;;;2.35;72.44;99032.20;135430;1281;22507;-64
2023/04/27 02:45:07;;;;;;;;;;;;;;;2.39;72.35;99034.52;135363;1281;22535;-64
2023/04/27 02:48:12;;;;;;;;;;;;;;;2.28;72.80;99038.23;135378;1281;22543;-65
2023/04/27 02:51:16;;;;;;;;;;;;;;;2.18;73.17;99034.49;135357;1281;22504;-64
2023/04/27 02:54:19;;;;;;;;;;;;;;;2.14;73.64;99037.86;135373;1281;22507;-64
2023/04/27 02:57:22;;;;;;;;;;;;;;;2.01;74.11;99040.08;135404;1281;22518;-66
2023/04/27 03:00:25;;;;;;;;;;;;;;;1.88;74.63;99035.16;135372;1281;22529;-64
2023/04/27 03:03:29;;;;;;;;;;;;;;;1.89;74.39;99038.94;135361;1281;22546;-66
2023/04/27 03:06:31;;;;;;;;;;;;;;;1.91;74.32;99037.53;135311;1281;22507;-66
2023/04/27 03:09:34;;;;;;;;;;;;;;;1.87;74.26;99037.97;135320;1281;25472;-65
2023/04/27 03:12:37;;;;;;;;;;;;;;;1.93;73.92;99044.73;135427;1281;22531;-64
2023/04/27 03:15:40;;;;;;;;;;;;;;;1.98;73.11;99047.36;135401;1281;22522;-64
2023/04/27 03:18:44;;;;;;;;;;;;;;;1.89;73.37;99046.70;135406;1281;22510;-64
2023/04/27 03:21:47;;;;;;;;;;;;;;;1.77;73.37;99049.38;135399;1281;22539;-63
2023/04/27 03:24:51;;;;;;;;;;;;;;;1.72;73.62;99049.13;135388;1281;22509;-63
2023/04/27 03:27:54;;;;;;;;;;;;;;;1.68;73.71;99056.13;135385;1281;25382;-64
2023/04/27 03:30:56;;;;;;;;;;;;;;;1.63;74.11;99057.25;135400;1281;22545;-63
2023/04/27 03:33:59;;;;;;;;;;;;;;;1.60;74.30;99061.27;135396;1281;22547;-64
2023/04/27 03:37:02;;;;;;;;;;;;;;;1.48;75.38;99062.21;135367;1281;22577;-66
2023/04/27 03:40:06;;;;;;;;;;;;;;;1.48;76.17;99064.29;135383;1281;22511;-64
2023/04/27 03:43:09;;;;;;;;;;;;;;;1.50;76.16;99065.98;135385;1281;22505;-64
2023/04/27 03:46:12;;;;;;;;;;;;;;;1.50;76.18;99069.08;135337;1281;22507;-66
2023/04/27 03:49:15;;;;;;;;;;;;;;;1.54;76.03;99070.72;135387;1281;22503;-64
2023/04/27 03:52:18;;;;;;;;;;;;;;;1.46;76.46;99072.76;135374;1262;22520;-64
2023/04/27 03:55:22;;;;;;;;;;;;;;;1.44;77.27;99075.91;135390;1261;23115;-64
2023/04/27 03:58:26;;;;;;;;;;;;;;;1.50;76.57;99080.45;135395;1281;22522;-65
2023/04/27 04:01:29;;;;;;;;;;;;;;;1.59;75.95;99083.71;135397;1281;22526;-65
2023/04/27 04:04:32;;;;;;;;;;;;;;;1.69;75.48;99083.17;135380;1281;22516;-66
2023/04/27 04:07:34;;;;;;;;;;;;;;;1.79;75.56;99085.02;135364;1281;22516;-65
2023/04/27 04:10:37;;;;;;;;;;;;;;;1.93;75.54;99091.45;135379;1281;22510;-64
2023/04/27 04:13:41;;;;;;;;;;;;;;;2.03;76.02;99091.42;135387;1262;22543;-64
2023/04/27 04:16:43;;;;;;;;;;;;;;;2.26;76.19;99092.80;135462;1281;22514;-65
2023/04/27 04:19:46;;;;;;;;;;;;;;;2.47;75.80;99097.66;135396;1281;22508;-64
2023/04/27 04:22:49;;;;;;;;;;;;;;;2.66;75.94;99094.80;135421;1281;22509;-64
2023/04/27 04:25:52;;;;;;;;;;;;;;;2.89;75.86;99094.59;135342;1281;24315;-64
2023/04/27 04:28:55;;;;;;;;;;;;;;;3.10;75.93;99094.91;135414;1281;22556;-64
2023/04/27 04:32:00;;;;;;;;;;;;;;;3.34;76.33;99092.02;135372;1281;25396;-64
2023/04/27 04:35:07;;;;;;;;;;;;;;;3.62;76.94;99094.02;135374;1281;22515;-63
2023/04/27 04:38:09;;;;;;;;;;;;;;;3.99;76.85;99094.32;135329;1281;23379;-63
2023/04/27 04:41:13;;;;;;;;;;;;;;;4.28;76.27;99097.63;135383;1281;22508;-65
2023/04/27 04:44:15;;;;;;;;;;;;;;;4.61;75.78;99096.22;135334;1262;22504;-63
2023/04/27 04:47:18;;;;;;;;;;;;;;;4.98;74.14;99097.95;135338;1264;22654;-64
2023/04/27 04:50:20;;;;;;;;;;;;;;;5.36;72.51;99100.67;135337;1281;24381;-65
2023/04/27 04:53:31;;;;;;;;;;;;;;;5.47;73.00;99096.79;135376;1281;22501;-64
2023/04/27 04:56:34;;;;;;;;;;;;;;;5.83;72.54;99099.83;135375;1281;22524;-64
2023/04/27 04:59:38;;;;;;;;;;;;;;;6.13;72.05;99100.48;135381;1281;22537;-64
2023/04/27 05:02:42;;;;;;;;;;;;;;;6.51;70.37;99105.77;135409;1281;22525;-65
2023/04/27 05:05:45;;;;;;;;;;;;;;;6.66;70.09;99104.64;135400;1281;25372;-64
2023/04/27 05:08:47;;;;;;;;;;;;;;;6.81;69.42;99106.65;135370;1281;24384;-64
2023/04/27 05:11:52;;;;;;;;;;;;;;;6.69;69.98;99108.51;135412;1278;22738;-64
2023/04/27 05:14:55;;;;;;;;;;;;;;;6.58;70.22;99112.42;135412;1281;22513;-65
2023/04/27 05:17:58;;;;;;;;;;;;;;;6.66;70.24;99110.91;135371;1281;25233;-65
2023/04/27 05:21:01;;;;;;;;;;;;;;;6.56;71.32;99115.51;135394;1281;22510;-64
2023/04/27 05:24:05;;;;;;;;;;;;;;;6.81;70.54;99117.42;135325;1281;22503;-65
2023/04/27 05:27:08;;;;;;;;;;;;;;;6.95;70.54;99121.89;135363;1281;22504;-65
2023/04/27 05:30:11;;;;;;;;;;;;;;;6.70;72.61;99126.55;135376;1281;22535;-64
2023/04/27 05:33:14;;;;;;;;;;;;;;;6.68;73.98;99134.29;135373;1262;22543;-64
2023/04/27 05:36:21;;;;;;;;;;;;;;;6.67;73.22;99130.70;135384;1281;22513;-65
2023/04/27 05:39:27;;;;;;;;;;;;;;;6.97;73.55;99130.34;135375;1281;22518;-65
2023/04/27 05:42:30;;;;;;;;;;;;;;;7.29;71.74;99134.23;135369;1281;22498;-65
2023/04/27 05:45:33;;;;;;;;;;;;;;;7.51;71.37;99134.67;135381;1281;22555;-67
2023/04/27 05:48:35;;;;;;;;;;;;;;;7.79;70.07;99138.48;135376;1271;22560;-66
2023/04/27 05:51:39;;;;;;;;;;;;;;;8.03;70.41;99136.23;135386;1281;22511;-65
2023/04/27 05:54:41;;;;;;;;;;;;;;;8.16;69.25;99140.16;135364;1281;25483;-65
2023/04/27 05:57:48;;;;;;;;;;;;;;;8.40;67.50;99143.73;135383;1281;22526;-66
2023/04/27 06:00:52;;;;;;;;;;;;;;;8.65;68.71;99142.06;135364;1281;22504;-66
2023/04/27 06:04:00;;;;;;;;;;;;;;;8.89;66.20;99142.67;135370;1281;22532;-65
2023/04/27 06:07:05;;;;;;;;;;;;;;;9.02;65.71;99146.76;135392;1280;22497;-66
2023/04/27 06:10:09;;;;;;;;;;;;;;;9.14;66.59;99146.81;135328;1281;22504;-65
2023/04/27 06:13:12;;;;;;;;;;;;;;;9.42;65.65;99145.79;135345;1281;22682;-65
2023/04/27 06:16:35;;;;;;;;;;;;;;;9.86;64.79;99141.25;135355;1281;22538;-65
2023/04/27 06:19:42;;;;;;;;;;;;;;;10.35;62.33;99141.26;135387;1281;22517;-65
2023/04/27 06:22:46;;;;;;;;;;;;;;;10.42;60.37;99139.82;135365;1270;22510;-65
2023/04/27 06:25:52;;;;;;;;;;;;;;;10.39;60.11;99138.09;135339;1281;23860;-65
2023/04/27 06:28:55;;;;;;;;;;;;;;;10.45;59.60;99140.20;135328;1281;24376;-66
2023/04/27 06:31:58;;;;;;;;;;;;;;;10.27;61.05;99138.38;135382;1281;22507;-66
2023/04/27 06:35:01;;;;;;;;;;;;;;;10.27;61.44;99140.31;135376;1281;22516;-67
2023/04/27 06:38:04;;;;;;;;;;;;;;;10.69;61.88;99140.61;135378;1281;22511;-66
2023/04/27 06:41:07;;;;;;;;;;;;;;;11.18;61.23;99141.30;135369;1281;22504;-66
2023/04/27 06:44:09;;;;;;;;;;;;;;;11.34;59.30;99142.48;135393;1262;22526;-66
2023/04/27 06:47:13;;;;;;;;;;;;;;;11.29;56.34;99143.66;135355;1264;22508;-67
2023/04/27 06:50:16;;;;;;;;;;;;;;;11.47;56.49;99146.79;135359;1281;22556;-65
2023/04/27 06:53:19;;;;;;;;;;;;;;;11.83;56.34;99142.70;135343;1281;22620;-66
2023/04/27 06:56:22;;;;;;;;;;;;;;;11.83;56.69;99146.90;135371;1275;22511;-67
2023/04/27 06:59:26;;;;;;;;;;;;;;;11.99;55.57;99143.86;135364;1281;22511;-71
2023/04/27 07:02:29;;;;;;;;;;;;;;;11.96;55.00;99145.98;135262;1281;22490;-70
2023/04/27 07:05:32;;;;;;;;;;;;;;;12.06;54.13;99148.83;135324;1280;22620;-68
2023/04/27 07:08:35;;;;;;;;;;;;;;;12.08;54.24;99153.84;135362;1281;22508;-67
2023/04/27 07:11:39;;;;;;;;;;;;;;;12.17;52.20;99155.73;135350;1281;22511;-66
2023/04/27 07:14:42;;;;;;;;;;;;;;;12.47;52.72;99147.94;135377;1281;22507;-68
2023/04/27 07:17:45;;;;;;;;;;;;;;;12.53;49.68;99149.60;135362;1281;22528;-66
2023/04/27 07:20:48;;;;;;;;;;;;;;;12.98;52.13;99153.05;135386;1258;22510;-66
2023/04/27 07:23:51;;;;;;;;;;;;;;;13.17;51.33;99152.52;135391;1281;22527;-66
2023/04/27 07:26:56;;;;;;;;;;;;;;;13.50;49.83;99154.15;135398;1281;22529;-65
2023/04/27 07:29:59;;;;;;;;;;;;;;;13.76;47.72;99153.49;135380;1281;22530;-65
2023/04/27 07:33:03;;;;;;;;;;;;;;;13.64;46.55;99156.06;135348;1262;22507;-68
2023/04/27 07:36:06;;;;;;;;;;;;;;;13.36;45.41;99154.77;135337;1261;24212;-67
2023/04/27 07:39:13;;;;;;;;;;;;;;;13.57;48.00;99151.08;135427;1281;25348;-66
2023/04/27 07:42:15;;;;;;;;;;;;;;;13.58;44.93;99159.77;135185;1281;22536;-66
2023/04/27 07:45:19;;;;;;;;;;;;;;;13.66;44.65;99157.33;135339;1281;22512;-66
2023/04/27 07:48:27;;;;;;;;;;;;;;;13.75;43.80;99152.34;135398;1281;22504;-67
2023/04/27 07:51:30;;;;;;;;;;;;;;;13.26;41.12;99165.24;135371;1281;22513;-66
2023/04/27 07:54:33;;;;;;;;;;;;;;;13.13;42.07;99160.82;135410;1281;22503;-66
2023/04/27 07:57:36;;;;;;;;;;;;;;;13.41;42.23;99149.18;135390;1262;22529;-67
2023/04/27 08:00:40;;;;;;;;;;;;;;;13.97;42.58;99144.30;135365;1281;22660;-66
2023/04/27 08:03:50;;;;;;;;;;;;;;;13.44;40.88;99149.63;135381;1281;22511;-66
2023/04/27 08:06:52;;;;;;;;;;;;;;;13.05;42.28;99145.91;135355;1281;22500;-66
2023/04/27 08:09:56;;;;;;;;;;;;;;;12.91;42.38;99153.35;135378;1281;22524;-66
2023/04/27 08:12:58;;;;;;;;;;;;;;;12.77;42.66;99160.54;135361;1281;22521;-66
2023/04/27 08:16:01;;;;;;;;;;;;;;;12.55;42.61;99156.85;135344;1262;24195;-66
2023/04/27 08:19:04;;;;;;;;;;;;;;;12.46;43.44;99156.02;135383;1281;22554;-66
2023/04/27 08:22:07;;;;;;;;;;;;;;;12.61;44.06;99155.05;135389;1281;24006;-64
2023/04/27 08:25:10;;;;;;;;;;;;;;;13.34;45.43;99148.39;135358;1281;22511;-66
2023/04/27 08:28:13;;;;;;;;;;;;;;;13.87;43.40;99146.09;135403;1281;22511;-66
2023/04/27 08:31:16;;;;;;;;;;;;;;;13.63;40.98;99159.28;135361;1281;25393;-65
2023/04/27 08:34:19;;;;;;;;;;;;;;;13.26;39.76;99164.36;135395;1281;22499;-68
2023/04/27 08:37:22;;;;;;;;;;;;;;;12.96;40.64;99163.04;135314;1281;22574;-66
2023/04/27 08:40:25;;;;;;;;;;;;;;;12.80;41.02;99162.09;135370;1281;24285;-68
2023/04/27 08:43:28;;;;;;;;;;;;;;;12.95;41.36;99159.02;135401;1281;25466;-66
2023/04/27 08:46:31;;;;;;;;;;;;;;;13.82;41.53;99152.19;135339;1281;22522;-66
2023/04/27 08:49:34;;;;;;;;;;;;;;;14.68;41.36;99145.40;135394;1281;22508;-66
2023/04/27 08:52:38;;;;;;;;;;;;;;;14.23;39.19;99146.32;135359;1281;22514;-65
2023/04/27 08:55:40;;;;;;;;;;;;;;;13.70;40.05;99149.66;135326;1281;22494;-65
2023/04/27 08:58:43;;;;;;;;;;;;;;;13.44;39.05;99154.22;135381;1281;25607;-66
2023/04/27 09:01:47;;;;;;;;;;;;;;;13.15;39.86;99151.23;135393;1281;22553;-66
2023/04/27 09:04:50;;;;;;;;;;;;;;;13.16;39.74;99153.80;135350;1281;22526;-65
2023/04/27 09:07:53;;;;;;;;;;;;;;;13.12;40.49;99147.41;135368;1281;25329;-66
2023/04/27 09:10:56;;;;;;;;;;;;;;;13.24;40.54;99142.41;135344;1281;24860;-68
2023/04/27 09:13:59;;;;;;;;;;;;;;;13.33;41.83;99139.11;135362;1281;22650;-66
2023/04/27 09:17:02;;;;;;;;;;;;;;;13.25;39.94;99151.13;135372;1281;22518;-65
2023/04/27 09:20:08;;;;;;;;;;;;;;;12.73;40.06;99155.72;135364;1281;22566;-65
2023/04/27 09:23:11;;;;;;;;;;;;;;;12.46;41.45;99158.11;135371;1281;22500;-66
2023/04/27 09:26:15;;;;;;;;;;;;;;;12.21;41.46;99157.58;135397;1281;25391;-66
2023/04/27 09:29:18;;;;;;;;;;;;;;;12.02;42.42;99154.90;135366;1281;22693;-66
2023/04/27 09:32:22;;;;;;;;;;;;;;;11.89;43.11;99155.11;135357;1262;22511;-66
2023/04/27 09:35:25;;;;;;;;;;;;;;;11.94;43.48;99151.73;135336;1262;22507;-66
2023/04/27 09:38:28;;;;;;;;;;;;;;;11.97;43.06;99152.23;135329;1262;22507;-66
2023/04/27 09:41:31;;;;;;;;;;;;;;;12.03;42.56;99146.63;135334;1281;22548;-65
2023/04/27 09:44:34;;;;;;;;;;;;;;;12.20;43.17;99146.06;135310;1281;25329;-65
2023/04/27 09:47:37;;;;;;;;;;;;;;;12.42;41.82;99143.83;135366;1281;24037;-66
2023/04/27 09:50:40;;;;;;;;;;;;;;;12.57;42.14;99137.06;135323;1281;22530;-66
2023/04/27 09:54:03;;;;;;;;;;;;;;;12.53;43.02;99142.41;135340;1281;22565;-66
2023/04/27 09:57:07;;;;;;;;;;;;;;;12.56;42.93;99142.58;135383;1281;22504;-66
2023/04/27 10:00:10;;;;;;;;;;;;;;;12.55;42.30;99146.67;135344;1281;22517;-66
2023/04/27 10:03:13;;;;;;;;;;;;;;;12.49;42.65;99153.35;135322;1280;22507;-65
2023/04/27 10:06:17;;;;;;;;;;;;;;;12.43;42.47;99152.67;135367;1281;22533;-66
2023/04/27 10:09:22;;;;;;;;;;;;;;;12.39;43.28;99150.84;135376;1281;22505;-65
2023/04/27 10:12:25;;;;;;;;;;;;;;;12.23;42.88;99155.58;135360;1281;22527;-66
2023/04/27 10:15:28;;;;;;;;;;;;;;;12.20;42.79;99158.88;135358;1263;22616;-66
2023/04/27 10:18:31;;;;;;;;;;;;;;;11.93;42.95;99165.45;135364;1281;22501;-66
2023/04/27 10:21:34;;;;;;;;;;;;;;;11.74;44.27;99161.64;135354;1262;22532;-64
2023/04/27 10:24:37;;;;;;;;;;;;;;;11.65;43.76;99166.05;135338;1281;22518;-66
2023/04/27 10:27:41;;;;;;;;;;;;;;;11.63;44.53;99166.16;135328;1272;22497;-66
2023/04/27 10:30:45;;;;;;;;;;;;;;;11.54;44.59;99168.83;135332;1262;22519;-66
2023/04/27 10:33:48;;;;;;;;;;;;;;;11.50;45.64;99171.83;135376;1281;25482;-66
2023/04/27 10:36:50;;;;;;;;;;;;;;;11.39;45.41;99174.90;135343;1281;25496;-66
2023/04/27 10:39:53;;;;;;;;;;;;;;;11.30;44.85;99170.04;135360;1281;22504;-66
2023/04/27 10:42:56;;;;;;;;;;;;;;;11.30;45.04;99167.08;135372;1281;22533;-66
2023/04/27 10:45:59;;;;;;;;;;;;;;;11.42;45.18;99171.43;135326;1281;25400;-65
2023/04/27 10:49:02;;;;;;;;;;;;;;;11.62;45.12;99174.64;135376;1262;22517;-66
2023/04/27 10:52:05;;;;;;;;;;;;;;;11.72;45.22;99171.58;135353;1281;22509;-68
2023/04/27 10:55:08;;;;;;;;;;;;;;;11.88;44.80;99178.16;135331;1281;22519;-66
2023/04/27 10:58:11;;;;;;;;;;;;;;;12.06;44.37;99174.30;135337;1281;22510;-66
2023/04/27 11:01:18;;;;;;;;;;;;;;;12.21;43.76;99178.78;135356;1280;22514;-65
2023/04/27 11:04:21;;;;;;;;;;;;;;;12.41;43.63;99175.27;135319;1281;22530;-66
2023/04/27 11:07:28;;;;;;;;;;;;;;;12.60;42.23;99181.27;135357;1281;22512;-68
2023/04/27 11:10:31;;;;;;;;;;;;;;;12.68;42.29;99181.11;135339;1281;22511;-65
2023/04/27 11:13:33;;;;;;;;;;;;;;;12.85;42.24;99179.33;135343;1281;22518;-66
2023/04/27 11:16:36;;;;;;;;;;;;;;;12.89;42.17;99179.42;135314;1281;22661;-66
2023/04/27 11:19:39;;;;;;;;;;;;;;;12.80;42.76;99176.84;135327;1281;22510;-66
2023/04/27 11:22:42;;;;;;;;;;;;;;;13.04;42.53;99186.20;135335;1262;22510;-65
2023/04/27 11:25:45;;;;;;;;;;;;;;;13.12;41.62;99187.06;135356;1281;22497;-66
2023/04/27 11:28:48;;;;;;;;;;;;;;;13.34;42.22;99182.61;135321;1281;22513;-66
2023/04/27 11:31:51;;;;;;;;;;;;;;;13.59;42.45;99179.05;135269;1281;22511;-66
2023/04/27 11:34:54;;;;;;;;;;;;;;;13.85;41.43;99173.59;135309;1281;22494;-66
2023/04/27 11:37:58;;;;;;;;;;;;;;;13.93;40.49;99178.02;135336;1281;25611;-66
2023/04/27 11:41:01;;;;;;;;;;;;;;;14.06;40.96;99174.63;135331;1281;22514;-66
2023/04/27 11:44:06;;;;;;;;;;;;;;;14.12;41.04;99175.41;135382;1281;22530;-66
2023/04/27 11:47:09;;;;;;;;;;;;;;;14.15;39.62;99169.02;135352;1281;22494;-66
2023/04/27 11:50:12;;;;;;;;;;;;;;;14.18;39.36;99170.93;135296;1262;22524;-67
2023/04/27 11:53:15;;;;;;;;;;;;;;;14.26;39.07;99170.59;135340;1281;25252;-65
2023/04/27 11:56:18;;;;;;;;;;;;;;;14.20;38.30;99167.33;135272;1281;22542;-66
2023/04/27 11:59:28;;;;;;;;;;;;;;;14.40;37.40;99166.61;135320;1280;22568;-65
2023/04/27 12:02:32;;;;;;;;;;;;;;;14.51;36.73;99165.85;131122;1281;5527281;-66
2023/04/27 12:05:38;;;;;;;;;;;;;;;14.41;34.85;99171.09;135266;1281;22527;-66
2023/04/27 12:08:43;;;;;;;;;;;;;;;14.22;36.32;99163.64;135304;1281;22533;-66
2023/04/27 12:11:46;;;;;;;;;;;;;;;14.18;36.24;99163.02;135253;1281;22500;-66
2023/04/27 12:14:50;;;;;;;;;;;;;;;14.26;37.23;99161.61;135294;1281;22532;-67
2023/04/27 12:17:54;;;;;;;;;;;;;;;14.14;37.31;99164.20;135360;1281;22508;-66
2023/04/27 12:20:57;;;;;;;;;;;;;;;13.96;37.55;99165.26;135303;1281;22497;-68
2023/04/27 12:24:01;;;;;;;;;;;;;;;13.82;37.91;99164.98;135339;1281;22519;-68
2023/04/27 12:27:05;;;;;;;;;;;;;;;13.62;37.46;99173.20;135302;1281;22536;-66
2023/04/27 12:30:09;;;;;;;;;;;;;;;13.28;38.78;99177.76;135311;1281;22506;-66
2023/04/27 12:33:12;;;;;;;;;;;;;;;12.91;38.78;99178.95;135328;1281;25297;-66
2023/04/27 12:36:15;;;;;;;;;;;;;;;12.68;40.02;99185.50;135335;1281;22509;-66
2023/04/27 12:39:17;;;;;;;;;;;;;;;12.58;42.06;99193.51;135310;1281;22535;-66
2023/04/27 12:42:23;;;;;;;;;;;;;;;12.25;43.14;99196.27;135284;1281;22500;-66
2023/04/27 12:45:46;;;;;;;;;;;;;;;11.92;44.74;99200.73;135333;1281;22518;-66
2023/04/27 12:48:52;;;;;;;;;;;;;;;11.95;45.69;99194.77;135290;1281;24228;-65
2023/04/27 12:51:56;;;;;;;;;;;;;;;12.11;44.79;99197.47;135267;1281;22527;-66
2023/04/27 12:55:00;;;;;;;;;;;;;;;12.37;45.56;99191.69;135372;1281;22504;-65
2023/04/27 12:58:03;;;;;;;;;;;;;;;12.63;44.43;99188.14;135309;1281;22517;-66
2023/04/27 13:01:13;;;;;;;;;;;;;;;12.86;43.38;99187.15;135316;1262;22508;-66
2023/04/27 13:04:16;;;;;;;;;;;;;;;13.21;42.86;99188.77;135313;1281;22581;-66
2023/04/27 13:07:19;;;;;;;;;;;;;;;13.49;42.72;99183.78;135297;1267;22539;-66
2023/04/27 13:10:22;;;;;;;;;;;;;;;13.74;42.62;99178.41;135285;1262;22514;-67
2023/04/27 13:13:25;;;;;;;;;;;;;;;14.04;40.88;99174.38;135288;1281;22541;-65
2023/04/27 13:16:28;;;;;;;;;;;;;;;14.48;40.90;99174.16;135321;1281;22752;-66
2023/04/27 13:19:31;;;;;;;;;;;;;;;14.77;41.45;99170.65;135311;1281;24392;-66
2023/04/27 13:22:35;;;;;;;;;;;;;;;15.22;40.27;99166.33;135312;1281;22503;-66
2023/04/27 13:25:37;;;;;;;;;;;;;;;15.55;40.42;99163.45;135327;1278;25390;-65
2023/04/27 13:28:40;;;;;;;;;;;;;;;15.63;39.25;99168.85;135302;1281;22509;-66
2023/04/27 13:31:43;;;;;;;;;;;;;;;14.88;38.39;99175.28;135314;1281;22514;-65
2023/04/27 13:34:46;;;;;;;;;;;;;;;14.45;38.93;99172.21;135343;1262;22503;-66
2023/04/27 13:37:54;;;;;;;;;;;;;;;14.16;40.73;99169.67;135334;1281;26631;-66
2023/04/27 13:41:00;;;;;;;;;;;;;;;13.99;40.51;99174.24;135329;1281;22522;-66
2023/04/27 13:44:03;;;;;;;;;;;;;;;13.69;40.05;99172.73;135325;1281;22630;-67
2023/04/27 13:47:06;;;;;;;;;;;;;;;13.49;40.26;99181.64;135301;1281;24217;-67
2023/04/27 13:50:10;;;;;;;;;;;;;;;13.43;39.54;99184.55;135370;1281;25406;-66
2023/04/27 13:53:15;;;;;;;;;;;;;;;13.29;40.76;99194.36;135287;1281;22443;-66
2023/04/27 13:56:19;;;;;;;;;;;;;;;13.06;41.40;99206.25;135342;1281;22520;-68
2023/04/27 13:59:22;;;;;;;;;;;;;;;12.83;42.41;99200.69;135345;1262;22520;-66
2023/04/27 14:02:45;;;;;;;;;;;;;;;12.69;42.52;99200.18;135285;1281;22525;-66
2023/04/27 14:05:55;;;;;;;;;;;;;;;12.56;43.19;99208.01;135331;1281;22557;-66
2023/04/27 14:08:59;;;;;;;;;;;;;;;12.44;43.34;99208.26;135315;1281;22505;-67
2023/04/27 14:12:02;;;;;;;;;;;;;;;12.33;43.66;99212.21;135365;1281;22504;-67
2023/04/27 14:15:05;;;;;;;;;;;;;;;12.35;43.09;99208.63;135327;1281;22510;-66
2023/04/27 14:18:08;;;;;;;;;;;;;;;12.36;43.46;99211.19;135311;1262;24360;-66
2023/04/27 14:21:11;;;;;;;;;;;;;;;12.61;43.70;99211.77;135316;1262;24361;-66
2023/04/27 14:24:14;;;;;;;;;;;;;;;12.65;44.15;99215.36;135326;1281;22513;-66
2023/04/27 14:27:17;;;;;;;;;;;;;;;13.08;44.33;99222.83;135320;1281;22583;-66
2023/04/27 14:30:22;;;;;;;;;;;;;;;13.41;42.93;99227.15;135344;1281;25464;-67
2023/04/27 14:33:25;;;;;;;;;;;;;;;13.95;42.56;99222.13;135290;1281;22525;-67
2023/04/27 14:36:28;;;;;;;;;;;;;;;14.30;41.68;99219.87;135305;1281;22556;-65
2023/04/27 14:39:30;;;;;;;;;;;;;;;14.38;41.16;99222.17;135268;1281;22512;-66
2023/04/27 14:42:35;;;;;;;;;;;;;;;14.21;40.53;99225.30;135241;1281;22506;-66
2023/04/27 14:45:39;;;;;;;;;;;;;;;13.90;40.13;99223.56;135261;1281;22506;-67
2023/04/27 14:48:43;;;;;;;;;;;;;;;13.92;40.87;99222.66;135311;1281;22510;-66
2023/04/27 14:51:46;;;;;;;;;;;;;;;14.04;40.00;99227.36;135313;1281;25387;-65
2023/04/27 14:54:49;;;;;;;;;;;;;;;14.03;40.07;99217.55;135333;1262;22509;-66
2023/04/27 14:57:59;;;;;;;;;;;;;;;14.06;39.88;99224.40;135311;1262;22523;-66
2023/04/27 15:01:05;;;;;;;;;;;;;;;14.04;39.88;99223.79;135327;1281;22552;-66
2023/04/27 15:04:08;;;;;;;;;;;;;;;14.01;40.12;99221.56;135283;1264;22511;-66
2023/04/27 15:07:12;;;;;;;;;;;;;;;14.20;40.51;99222.16;135291;1281;22493;-66
2023/04/27 15:10:15;;;;;;;;;;;;;;;14.30;39.49;99224.98;135335;1281;22520;-66
2023/04/27 15:13:17;;;;;;;;;;;;;;;14.46;38.94;99218.77;135312;1281;22516;-66
2023/04/27 15:16:20;;;;;;;;;;;;;;;14.65;39.64;99222.90;135320;1281;22515;-67
2023/04/27 15:19:23;;;;;;;;;;;;;;;15.42;38.60;99224.17;135315;1267;22518;-66
2023/04/27 15:22:27;;;;;;;;;;;;;;;15.62;37.34;99222.50;135329;1281;22548;-65
2023/04/27 15:25:31;;;;;;;;;;;;;;;16.03;36.80;99220.97;135316;1281;23875;-65
2023/04/27 15:28:35;;;;;;;;;;;;;;;16.94;35.60;99217.56;135316;1277;22523;-66
2023/04/27 15:31:39;;;;;;;;;;;;;;;16.12;34.86;99221.42;135286;1262;22507;-65
2023/04/27 15:34:43;;;;;;;;;;;;;;;15.81;34.47;99218.66;135338;1262;22545;-67
2023/04/27 15:37:50;;;;;;;;;;;;;;;15.71;34.52;99218.35;135272;1281;22584;-67
2023/04/27 15:40:53;;;;;;;;;;;;;;;15.29;35.03;99217.23;135272;1281;22553;-66
2023/04/27 15:43:59;;;;;;;;;;;;;;;15.01;34.36;99222.64;135345;1281;22502;-65
2023/04/27 15:47:06;;;;;;;;;;;;;;;14.60;34.32;99219.20;135330;1281;22513;-65